sensor_id;sensor_type;location;lat;lon;timestamp;pressure;altitude;pressure_sealevel;temperature;humidity
22647;BME280;11490;42.726;23.268;2022-09-17T00:00:47;94416.63;;;18.01;100.00
22647;BME280;11490;42.726;23.268;2022-09-17T00:03:13;94410.41;;;18.00;100.00
22647;BME280;11490;42.726;23.268;2022-09-17T00:05:39;94397.69;;;17.79;100.00
22647;BME280;11490;42.726;23.268;2022-09-17T00:08:06;94402.66;;;17.85;100.00
22647;BME280;11490;42.726;23.268;2022-09-17T00:10:36;94394.72;;;18.02;100.00
22647;BME280;11490;42.726;23.268;2022-09-17T00:13:03;94396.78;;;18.19;100.00
22647;BME280;11490;42.726;23.268;2022-09-17T00:15:28;94391.47;;;17.78;100.00
22647;BME280;11490;42.726;23.268;2022-09-17T00:17:54;94381.84;;;17.99;100.00
22647;BME280;11490;42.726;23.268;2022-09-17T00:20:22;94378.41;;;18.07;100.00
22647;BME280;11490;42.726;23.268;2022-09-17T00:22:48;94381.63;;;18.10;100.00
22647;BME280;11490;42.726;23.268;2022-09-17T00:25:13;94384.56;;;18.22;100.00
22647;BME280;11490;42.726;23.268;2022-09-17T00:27:38;94388.25;;;18.26;100.00
22647;BME280;11490;42.726;23.268;2022-09-17T00:30:04;94394.53;;;18.35;100.00
22647;BME280;11490;42.726;23.268;2022-09-17T00:32:30;94386.31;;;18.40;100.00
22647;BME280;11490;42.726;23.268;2022-09-17T00:34:55;94383.22;;;18.11;100.00
22647;BME280;11490;42.726;23.268;2022-09-17T00:37:21;94400.03;;;18.30;100.00
22647;BME280;11490;42.726;23.268;2022-09-17T00:39:46;94393.53;;;18.31;100.00
22647;BME280;11490;42.726;23.268;2022-09-17T00:42:13;94391.78;;;18.13;100.00
22647;BME280;11490;42.726;23.268;2022-09-17T00:44:44;94392.16;;;18.20;100.00
22647;BME280;11490;42.726;23.268;2022-09-17T00:47:38;94405.81;;;18.37;100.00
22647;BME280;11490;42.726;23.268;2022-09-17T00:52:36;94422.69;;;18.42;100.00
22647;BME280;11490;42.726;23.268;2022-09-17T00:55:20;94417.78;;;18.08;100.00
22647;BME280;11490;42.726;23.268;2022-09-17T00:57:50;94411.84;;;17.84;100.00
22647;BME280;11490;42.726;23.268;2022-09-17T01:00:17;94433.22;;;17.94;100.00
22647;BME280;11490;42.726;23.268;2022-09-17T01:02:42;94398.03;;;17.99;100.00
22647;BME280;11490;42.726;23.268;2022-09-17T01:05:08;94412.25;;;17.78;100.00
22647;BME280;11490;42.726;23.268;2022-09-17T01:07:52;94405.22;;;17.90;100.00
22647;BME280;11490;42.726;23.268;2022-09-17T01:10:44;94408.63;;;17.82;100.00
22647;BME280;11490;42.726;23.268;2022-09-17T01:16:03;94394.66;;;17.94;100.00
22647;BME280;11490;42.726;23.268;2022-09-17T01:21:33;94398.41;;;18.06;100.00
22647;BME280;11490;42.726;23.268;2022-09-17T01:32:51;94384.28;;;17.60;100.00
22647;BME280;11490;42.726;23.268;2022-09-17T01:35:31;94364.72;;;17.68;100.00
22647;BME280;11490;42.726;23.268;2022-09-17T01:38:12;94357.13;;;17.70;100.00
22647;BME280;11490;42.726;23.268;2022-09-17T01:41:20;94364.00;;;17.76;100.00
22647;BME280;11490;42.726;23.268;2022-09-17T01:43:54;94368.63;;;17.98;100.00
22647;BME280;11490;42.726;23.268;2022-09-17T01:46:33;94396.84;;;17.92;100.00
22647;BME280;11490;42.726;23.268;2022-09-17T01:49:02;94406.25;;;17.94;100.00
22647;BME280;11490;42.726;23.268;2022-09-17T01:51:34;94402.31;;;18.00;100.00
22647;BME280;11490;42.726;23.268;2022-09-17T01:54:12;94395.31;;;17.99;100.00
22647;BME280;11490;42.726;23.268;2022-09-17T01:56:46;94381.84;;;17.99;100.00
22647;BME280;11490;42.726;23.268;2022-09-17T01:59:25;94381.28;;;17.48;100.00
22647;BME280;11490;42.726;23.268;2022-09-17T02:01:57;94348.53;;;17.68;100.00
22647;BME280;11490;42.726;23.268;2022-09-17T02:04:28;94324.41;;;17.08;100.00
22647;BME280;11490;42.726;23.268;2022-09-17T02:07:01;94309.84;;;17.09;100.00
22647;BME280;11490;42.726;23.268;2022-09-17T02:09:36;94314.41;;;17.22;100.00
22647;BME280;11490;42.726;23.268;2022-09-17T02:12:05;94285.88;;;17.08;100.00
22647;BME280;11490;42.726;23.268;2022-09-17T02:14:39;94258.25;;;17.16;100.00
22647;BME280;11490;42.726;23.268;2022-09-17T02:17:15;94260.91;;;17.29;100.00
22647;BME280;11490;42.726;23.268;2022-09-17T02:19:44;94277.63;;;17.54;100.00
22647;BME280;11490;42.726;23.268;2022-09-17T02:27:41;94280.09;;;17.01;100.00
22647;BME280;11490;42.726;23.268;2022-09-17T02:30:11;94303.06;;;17.25;100.00
22647;BME280;11490;42.726;23.268;2022-09-17T02:32:36;94362.53;;;17.70;100.00
22647;BME280;11490;42.726;23.268;2022-09-17T02:35:02;94351.81;;;17.79;100.00
22647;BME280;11490;42.726;23.268;2022-09-17T02:37:28;94293.22;;;17.57;100.00
22647;BME280;11490;42.726;23.268;2022-09-17T02:39:53;94268.75;;;16.76;100.00
22647;BME280;11490;42.726;23.268;2022-09-17T02:51:13;94267.50;;;17.23;100.00
22647;BME280;11490;42.726;23.268;2022-09-17T02:56:48;94221.06;;;16.77;100.00
22647;BME280;11490;42.726;23.268;2022-09-17T02:59:23;94228.19;;;17.22;100.00
22647;BME280;11490;42.726;23.268;2022-09-17T03:01:57;94246.88;;;17.55;100.00
22647;BME280;11490;42.726;23.268;2022-09-17T03:04:26;94244.22;;;17.27;100.00
22647;BME280;11490;42.726;23.268;2022-09-17T03:06:54;94250.16;;;16.88;100.00
22647;BME280;11490;42.726;23.268;2022-09-17T03:09:19;94269.50;;;17.04;100.00
22647;BME280;11490;42.726;23.268;2022-09-17T03:11:45;94268.59;;;17.22;100.00
22647;BME280;11490;42.726;23.268;2022-09-17T03:14:10;94268.34;;;17.10;100.00
22647;BME280;11490;42.726;23.268;2022-09-17T03:16:36;94243.84;;;17.34;100.00
22647;BME280;11490;42.726;23.268;2022-09-17T03:19:01;94258.50;;;17.42;100.00
22647;BME280;11490;42.726;23.268;2022-09-17T03:21:27;94232.53;;;17.46;100.00
22647;BME280;11490;42.726;23.268;2022-09-17T03:23:52;94192.31;;;17.36;100.00
22647;BME280;11490;42.726;23.268;2022-09-17T03:26:18;94193.03;;;17.27;100.00
22647;BME280;11490;42.726;23.268;2022-09-17T03:28:43;94182.50;;;17.04;100.00
22647;BME280;11490;42.726;23.268;2022-09-17T03:31:08;94188.56;;;16.87;100.00
22647;BME280;11490;42.726;23.268;2022-09-17T03:33:34;94209.47;;;16.90;100.00
22647;BME280;11490;42.726;23.268;2022-09-17T03:35:59;94199.72;;;16.94;100.00
22647;BME280;11490;42.726;23.268;2022-09-17T03:38:25;94198.09;;;16.93;100.00
22647;BME280;11490;42.726;23.268;2022-09-17T03:41:04;94224.91;;;17.25;100.00
22647;BME280;11490;42.726;23.268;2022-09-17T03:43:31;94234.16;;;17.19;100.00
22647;BME280;11490;42.726;23.268;2022-09-17T03:45:57;94225.75;;;17.35;100.00
22647;BME280;11490;42.726;23.268;2022-09-17T03:48:22;94222.06;;;17.30;100.00
22647;BME280;11490;42.726;23.268;2022-09-17T03:50:49;94216.09;;;17.34;100.00
22647;BME280;11490;42.726;23.268;2022-09-17T03:53:15;94220.75;;;17.42;100.00
22647;BME280;11490;42.726;23.268;2022-09-17T03:55:40;94209.44;;;17.17;100.00
22647;BME280;11490;42.726;23.268;2022-09-17T03:58:06;94224.63;;;17.49;100.00
22647;BME280;11490;42.726;23.268;2022-09-17T04:00:31;94225.72;;;17.62;100.00
22647;BME280;11490;42.726;23.268;2022-09-17T04:02:57;94235.63;;;17.75;100.00
22647;BME280;11490;42.726;23.268;2022-09-17T04:05:22;94224.00;;;17.88;100.00
22647;BME280;11490;42.726;23.268;2022-09-17T04:07:48;94227.81;;;17.65;100.00
22647;BME280;11490;42.726;23.268;2022-09-17T04:10:13;94256.84;;;17.90;100.00
22647;BME280;11490;42.726;23.268;2022-09-17T04:12:39;94266.91;;;17.98;100.00
22647;BME280;11490;42.726;23.268;2022-09-17T04:15:05;94285.31;;;17.96;100.00
22647;BME280;11490;42.726;23.268;2022-09-17T04:17:30;94273.91;;;17.99;100.00
22647;BME280;11490;42.726;23.268;2022-09-17T04:19:56;94287.25;;;18.04;100.00
22647;BME280;11490;42.726;23.268;2022-09-17T04:22:22;94304.09;;;18.01;100.00
22647;BME280;11490;42.726;23.268;2022-09-17T04:24:48;94303.22;;;17.92;100.00
22647;BME280;11490;42.726;23.268;2022-09-17T04:27:13;94315.81;;;17.83;100.00
22647;BME280;11490;42.726;23.268;2022-09-17T04:29:39;94313.75;;;17.80;100.00
22647;BME280;11490;42.726;23.268;2022-09-17T04:32:04;94325.53;;;17.84;100.00
22647;BME280;11490;42.726;23.268;2022-09-17T04:34:29;94331.50;;;17.81;100.00
22647;BME280;11490;42.726;23.268;2022-09-17T04:36:56;94341.28;;;17.91;100.00
22647;BME280;11490;42.726;23.268;2022-09-17T04:39:21;94339.13;;;17.79;100.00
22647;BME280;11490;42.726;23.268;2022-09-17T04:41:47;94354.09;;;17.85;100.00
22647;BME280;11490;42.726;23.268;2022-09-17T04:44:12;94362.31;;;17.80;100.00
22647;BME280;11490;42.726;23.268;2022-09-17T04:46:37;94372.06;;;17.90;100.00
22647;BME280;11490;42.726;23.268;2022-09-17T04:49:03;94374.47;;;17.91;100.00
22647;BME280;11490;42.726;23.268;2022-09-17T04:51:28;94374.47;;;17.91;100.00
22647;BME280;11490;42.726;23.268;2022-09-17T04:53:53;94393.22;;;17.96;100.00
22647;BME280;11490;42.726;23.268;2022-09-17T04:56:19;94414.59;;;18.06;100.00
22647;BME280;11490;42.726;23.268;2022-09-17T04:58:44;94427.66;;;18.13;100.00
22647;BME280;11490;42.726;23.268;2022-09-17T05:01:10;94424.44;;;18.25;100.00
22647;BME280;11490;42.726;23.268;2022-09-17T05:03:38;94405.34;;;18.21;100.00
22647;BME280;11490;42.726;23.268;2022-09-17T05:06:03;94391.94;;;18.30;100.00
22647;BME280;11490;42.726;23.268;2022-09-17T05:08:29;94374.47;;;17.91;100.00
22647;BME280;11490;42.726;23.268;2022-09-17T05:10:54;94360.84;;;17.96;100.00
22647;BME280;11490;42.726;23.268;2022-09-17T05:13:20;94368.63;;;18.12;100.00
22647;BME280;11490;42.726;23.268;2022-09-17T05:15:46;94370.56;;;18.20;100.00
22647;BME280;11490;42.726;23.268;2022-09-17T05:18:11;94363.81;;;18.08;100.00
22647;BME280;11490;42.726;23.268;2022-09-17T05:20:37;94355.50;;;18.19;100.00
22647;BME280;11490;42.726;23.268;2022-09-17T05:23:03;94368.38;;;18.22;100.00
22647;BME280;11490;42.726;23.268;2022-09-17T05:25:28;94356.25;;;18.33;100.00
22647;BME280;11490;42.726;23.268;2022-09-17T05:27:55;94351.06;;;18.45;100.00
22647;BME280;11490;42.726;23.268;2022-09-17T05:30:21;94356.47;;;18.45;100.00
22647;BME280;11490;42.726;23.268;2022-09-17T05:32:47;94355.88;;;18.48;100.00
22647;BME280;11490;42.726;23.268;2022-09-17T05:35:13;94353.25;;;18.57;100.00
22647;BME280;11490;42.726;23.268;2022-09-17T05:37:38;94370.63;;;18.64;100.00
22647;BME280;11490;42.726;23.268;2022-09-17T05:40:05;94358.81;;;18.60;100.00
22647;BME280;11490;42.726;23.268;2022-09-17T05:42:31;94354.78;;;18.71;100.00
22647;BME280;11490;42.726;23.268;2022-09-17T05:44:57;94354.78;;;18.71;100.00
22647;BME280;11490;42.726;23.268;2022-09-17T05:47:22;94346.16;;;18.69;100.00
22647;BME280;11490;42.726;23.268;2022-09-17T05:49:48;94347.16;;;18.73;100.00
22647;BME280;11490;42.726;23.268;2022-09-17T05:52:13;94349.84;;;18.51;100.00
22647;BME280;11490;42.726;23.268;2022-09-17T05:54:38;94339.00;;;18.65;100.00
22647;BME280;11490;42.726;23.268;2022-09-17T05:57:04;94341.22;;;18.63;100.00
22647;BME280;11490;42.726;23.268;2022-09-17T05:59:30;94340.78;;;18.69;100.00
22647;BME280;11490;42.726;23.268;2022-09-17T06:01:56;94355.28;;;18.82;100.00
22647;BME280;11490;42.726;23.268;2022-09-17T06:04:21;94359.06;;;18.72;100.00
22647;BME280;11490;42.726;23.268;2022-09-17T06:06:46;94358.31;;;18.80;100.00
22647;BME280;11490;42.726;23.268;2022-09-17T06:09:12;94405.09;;;18.90;100.00
22647;BME280;11490;42.726;23.268;2022-09-17T06:11:38;94405.84;;;18.59;100.00
22647;BME280;11490;42.726;23.268;2022-09-17T06:14:03;94400.66;;;18.49;100.00
22647;BME280;11490;42.726;23.268;2022-09-17T06:16:28;94413.44;;;18.35;100.00
22647;BME280;11490;42.726;23.268;2022-09-17T06:18:54;94415.38;;;18.43;100.00
22647;BME280;11490;42.726;23.268;2022-09-17T06:21:19;94417.41;;;18.37;100.00
22647;BME280;11490;42.726;23.268;2022-09-17T06:23:49;94428.06;;;18.56;100.00
22647;BME280;11490;42.726;23.268;2022-09-17T06:26:14;94439.44;;;18.53;100.00
22647;BME280;11490;42.726;23.268;2022-09-17T06:28:44;94433.69;;;18.46;100.00
22647;BME280;11490;42.726;23.268;2022-09-17T06:31:11;94435.41;;;18.42;100.00
22647;BME280;11490;42.726;23.268;2022-09-17T06:33:36;94435.13;;;18.30;100.00
22647;BME280;11490;42.726;23.268;2022-09-17T06:36:07;94429.94;;;18.33;100.00
22647;BME280;11490;42.726;23.268;2022-09-17T06:38:36;94438.31;;;18.32;100.00
22647;BME280;11490;42.726;23.268;2022-09-17T06:41:02;94411.81;;;18.12;100.00
22647;BME280;11490;42.726;23.268;2022-09-17T06:43:27;94413.16;;;18.23;100.00
22647;BME280;11490;42.726;23.268;2022-09-17T06:45:58;94431.91;;;18.41;100.00
22647;BME280;11490;42.726;23.268;2022-09-17T06:48:24;94408.97;;;18.17;100.00
22647;BME280;11490;42.726;23.268;2022-09-17T06:50:51;94400.75;;;18.22;100.00
22647;BME280;11490;42.726;23.268;2022-09-17T06:53:19;94403.41;;;17.99;100.00
22647;BME280;11490;42.726;23.268;2022-09-17T06:55:45;94394.81;;;17.97;100.00
22647;BME280;11490;42.726;23.268;2022-09-17T06:58:10;94393.22;;;17.96;100.00
22647;BME280;11490;42.726;23.268;2022-09-17T07:00:36;94389.72;;;18.10;100.00
22647;BME280;11490;42.726;23.268;2022-09-17T07:03:01;94383.22;;;18.11;100.00
22647;BME280;11490;42.726;23.268;2022-09-17T07:05:28;94378.56;;;18.25;100.00
22647;BME280;11490;42.726;23.268;2022-09-17T07:07:54;94356.97;;;18.25;100.00
22647;BME280;11490;42.726;23.268;2022-09-17T07:10:20;94348.00;;;18.38;100.00
22647;BME280;11490;42.726;23.268;2022-09-17T07:12:47;94338.81;;;18.17;100.00
22647;BME280;11490;42.726;23.268;2022-09-17T07:15:13;94339.22;;;18.10;100.00
22647;BME280;11490;42.726;23.268;2022-09-17T07:17:40;94345.44;;;18.33;100.00
22647;BME280;11490;42.726;23.268;2022-09-17T07:20:07;94322.47;;;18.44;100.00
22647;BME280;11490;42.726;23.268;2022-09-17T07:22:33;94300.09;;;18.74;100.00
22647;BME280;11490;42.726;23.268;2022-09-17T07:24:58;94298.59;;;18.91;100.00
22647;BME280;11490;42.726;23.268;2022-09-17T07:27:26;94327.69;;;18.94;100.00
22647;BME280;11490;42.726;23.268;2022-09-17T07:29:52;94353.91;;;19.24;100.00
22647;BME280;11490;42.726;23.268;2022-09-17T07:32:17;94347.66;;;19.15;100.00
22647;BME280;11490;42.726;23.268;2022-09-17T07:34:42;94343.00;;;19.46;100.00
22647;BME280;11490;42.726;23.268;2022-09-17T07:37:08;94332.94;;;19.38;100.00
22647;BME280;11490;42.726;23.268;2022-09-17T07:39:33;94330.38;;;19.73;100.00
22647;BME280;11490;42.726;23.268;2022-09-17T07:41:59;94329.28;;;20.08;100.00
22647;BME280;11490;42.726;23.268;2022-09-17T07:44:24;94332.78;;;20.17;100.00
22647;BME280;11490;42.726;23.268;2022-09-17T07:46:49;94329.09;;;20.13;100.00
22647;BME280;11490;42.726;23.268;2022-09-17T07:49:15;94322.25;;;20.24;100.00
22647;BME280;11490;42.726;23.268;2022-09-17T07:51:40;94307.63;;;20.34;100.00
22647;BME280;11490;42.726;23.268;2022-09-17T07:54:06;94319.72;;;20.36;100.00
22647;BME280;11490;42.726;23.268;2022-09-17T07:56:31;94318.47;;;20.43;100.00
22647;BME280;11490;42.726;23.268;2022-09-17T07:58:56;94308.41;;;20.52;100.00
22647;BME280;11490;42.726;23.268;2022-09-17T08:01:22;94319.69;;;20.54;100.00
22647;BME280;11490;42.726;23.268;2022-09-17T08:03:49;94303.59;;;20.66;100.00
22647;BME280;11490;42.726;23.268;2022-09-17T08:06:20;94301.84;;;20.61;100.00
22647;BME280;11490;42.726;23.268;2022-09-17T08:08:47;94309.28;;;20.90;100.00
22647;BME280;11490;42.726;23.268;2022-09-17T08:11:16;94299.53;;;20.89;100.00
22647;BME280;11490;42.726;23.268;2022-09-17T08:13:42;94297.94;;;20.88;97.97
22647;BME280;11490;42.726;23.268;2022-09-17T08:16:10;94307.00;;;20.92;100.00
22647;BME280;11490;42.726;23.268;2022-09-17T08:18:37;94295.19;;;21.05;100.00
22647;BME280;11490;42.726;23.268;2022-09-17T08:21:05;94303.72;;;21.25;98.32
22647;BME280;11490;42.726;23.268;2022-09-17T08:23:33;94306.03;;;21.43;96.46
22647;BME280;11490;42.726;23.268;2022-09-17T08:25:59;94305.03;;;21.10;91.08
22647;BME280;11490;42.726;23.268;2022-09-17T08:28:27;94304.72;;;21.11;95.24
22647;BME280;11490;42.726;23.268;2022-09-17T08:30:54;94304.22;;;21.77;93.13
22647;BME280;11490;42.726;23.268;2022-09-17T08:33:23;94306.78;;;22.03;88.52
22647;BME280;11490;42.726;23.268;2022-09-17T08:35:53;94288.22;;;22.25;90.23
22647;BME280;11490;42.726;23.268;2022-09-17T08:38:19;94310.78;;;22.38;84.83
22647;BME280;11490;42.726;23.268;2022-09-17T08:46:45;94293.44;;;22.63;87.40
22647;BME280;11490;42.726;23.268;2022-09-17T08:54:58;94291.94;;;22.87;85.82
22647;BME280;11490;42.726;23.268;2022-09-17T09:00:20;94309.91;;;22.46;89.39
22647;BME280;11490;42.726;23.268;2022-09-17T09:08:21;94297.97;;;22.06;90.56
22647;BME280;11490;42.726;23.268;2022-09-17T09:10:54;94282.97;;;22.00;89.77
22647;BME280;11490;42.726;23.268;2022-09-17T09:13:23;94287.81;;;21.73;88.18
22647;BME280;11490;42.726;23.268;2022-09-17T09:16:01;94304.94;;;21.65;90.95
22647;BME280;11490;42.726;23.268;2022-09-17T09:18:29;94313.28;;;21.60;93.97
22647;BME280;11490;42.726;23.268;2022-09-17T09:26:19;94343.50;;;21.50;96.71
22647;BME280;11490;42.726;23.268;2022-09-17T09:31:29;94352.72;;;21.11;100.00
22647;BME280;11490;42.726;23.268;2022-09-17T09:33:57;94364.13;;;20.79;100.00
22647;BME280;11490;42.726;23.268;2022-09-17T09:36:27;94356.78;;;20.79;100.00
22647;BME280;11490;42.726;23.268;2022-09-17T09:38:56;94360.94;;;20.68;100.00
22647;BME280;11490;42.726;23.268;2022-09-17T09:41:53;94360.53;;;20.40;100.00
22647;BME280;11490;42.726;23.268;2022-09-17T09:44:23;94377.25;;;20.51;100.00
22647;BME280;11490;42.726;23.268;2022-09-17T09:49:43;94391.91;;;20.50;100.00
22647;BME280;11490;42.726;23.268;2022-09-17T09:57:52;94392.81;;;20.02;100.00
22647;BME280;11490;42.726;23.268;2022-09-17T10:00:26;94354.13;;;20.02;100.00
22647;BME280;11490;42.726;23.268;2022-09-17T10:03:10;94333.53;;;19.57;100.00
22647;BME280;11490;42.726;23.268;2022-09-17T10:05:37;94328.94;;;19.67;100.00
22647;BME280;11490;42.726;23.268;2022-09-17T10:08:13;94301.88;;;19.58;100.00
22647;BME280;11490;42.726;23.268;2022-09-17T10:11:00;94279.56;;;19.61;100.00
22647;BME280;11490;42.726;23.268;2022-09-17T10:13:28;94253.31;;;19.62;100.00
22647;BME280;11490;42.726;23.268;2022-09-17T10:15:54;94248.78;;;19.22;100.00
22647;BME280;11490;42.726;23.268;2022-09-17T10:18:22;94249.91;;;19.39;100.00
22647;BME280;11490;42.726;23.268;2022-09-17T10:23:14;94218.44;;;19.43;100.00
22647;BME280;11490;42.726;23.268;2022-09-17T10:25:41;94218.41;;;19.26;100.00
22647;BME280;11490;42.726;23.268;2022-09-17T10:28:30;94217.28;;;19.18;100.00
22647;BME280;11490;42.726;23.268;2022-09-17T10:30:58;94253.50;;;19.00;100.00
22647;BME280;11490;42.726;23.268;2022-09-17T10:33:31;94247.22;;;18.73;100.00
22647;BME280;11490;42.726;23.268;2022-09-17T10:36:03;94260.63;;;18.56;100.00
22647;BME280;11490;42.726;23.268;2022-09-17T10:38:32;94257.53;;;18.71;100.00
22647;BME280;11490;42.726;23.268;2022-09-17T10:43:38;94276.09;;;19.04;100.00
22647;BME280;11490;42.726;23.268;2022-09-17T10:46:07;94257.16;;;19.04;100.00
22647;BME280;11490;42.726;23.268;2022-09-17T10:48:41;94239.88;;;19.22;100.00
22647;BME280;11490;42.726;23.268;2022-09-17T10:51:08;94231.72;;;19.05;100.00
22647;BME280;11490;42.726;23.268;2022-09-17T10:53:55;94244.09;;;18.97;100.00
22647;BME280;11490;42.726;23.268;2022-09-17T10:56:34;94237.00;;;19.10;100.00
22647;BME280;11490;42.726;23.268;2022-09-17T10:59:31;94222.38;;;19.28;100.00
22647;BME280;11490;42.726;23.268;2022-09-17T11:04:48;94211.91;;;19.35;100.00
22647;BME280;11490;42.726;23.268;2022-09-17T11:07:32;94241.50;;;19.40;100.00
22647;BME280;11490;42.726;23.268;2022-09-17T11:15:26;94259.03;;;19.51;100.00
22647;BME280;11490;42.726;23.268;2022-09-17T11:32:16;94245.16;;;20.39;100.00
22647;BME280;11490;42.726;23.268;2022-09-17T11:35:10;94239.59;;;20.18;100.00
22647;BME280;11490;42.726;23.268;2022-09-17T11:37:45;94264.28;;;20.25;100.00
22647;BME280;11490;42.726;23.268;2022-09-17T11:43:03;94251.22;;;20.27;100.00
22647;BME280;11490;42.726;23.268;2022-09-17T11:45:36;94241.03;;;20.16;100.00
22647;BME280;11490;42.726;23.268;2022-09-17T11:48:08;94234.81;;;20.15;100.00
22647;BME280;11490;42.726;23.268;2022-09-17T11:53:33;94232.00;;;20.03;100.00
22647;BME280;11490;42.726;23.268;2022-09-17T11:56:26;94219.25;;;20.12;100.00
22647;BME280;11490;42.726;23.268;2022-09-17T12:01:51;94204.13;;;20.03;100.00
22647;BME280;11490;42.726;23.268;2022-09-17T12:04:45;94216.69;;;19.90;100.00
22647;BME280;11490;42.726;23.268;2022-09-17T12:07:33;94212.91;;;19.74;100.00
22647;BME280;11490;42.726;23.268;2022-09-17T12:15:37;94217.97;;;19.84;100.00
22647;BME280;11490;42.726;23.268;2022-09-17T12:20:46;94207.16;;;19.75;100.00
22647;BME280;11490;42.726;23.268;2022-09-17T12:23:18;94210.66;;;19.76;100.00
22647;BME280;11490;42.726;23.268;2022-09-17T12:26:01;94201.13;;;19.70;100.00
22647;BME280;11490;42.726;23.268;2022-09-17T12:31:43;94195.09;;;19.55;100.00
22647;BME280;11490;42.726;23.268;2022-09-17T12:37:39;94185.34;;;19.46;100.00
22647;BME280;11490;42.726;23.268;2022-09-17T12:43:17;94184.22;;;19.38;100.00
22647;BME280;11490;42.726;23.268;2022-09-17T13:00:04;94164.75;;;18.84;100.00
22647;BME280;11490;42.726;23.268;2022-09-17T13:15:45;94140.28;;;18.90;100.00
22647;BME280;11490;42.726;23.268;2022-09-17T13:23:30;94131.38;;;18.98;100.00
22647;BME280;11490;42.726;23.268;2022-09-17T13:25:56;94126.13;;;18.84;100.00
22647;BME280;11490;42.726;23.268;2022-09-17T13:28:41;94139.97;;;18.91;100.00
22647;BME280;11490;42.726;23.268;2022-09-17T13:31:07;94127.09;;;18.88;100.00
22647;BME280;11490;42.726;23.268;2022-09-17T13:33:55;94130.78;;;19.01;100.00
22647;BME280;11490;42.726;23.268;2022-09-17T13:39:51;94122.50;;;19.06;100.00
22647;BME280;11490;42.726;23.268;2022-09-17T13:42:20;94122.19;;;19.16;100.00
22647;BME280;11490;42.726;23.268;2022-09-17T13:45:01;94073.06;;;19.05;100.00
22647;BME280;11490;42.726;23.268;2022-09-17T13:47:31;94079.13;;;19.19;100.00
22647;BME280;11490;42.726;23.268;2022-09-17T13:50:04;94075.75;;;19.14;100.00
22647;BME280;11490;42.726;23.268;2022-09-17T13:52:39;94062.09;;;19.02;100.00
22647;BME280;11490;42.726;23.268;2022-09-17T13:55:06;94045.03;;;19.36;100.00
22647;BME280;11490;42.726;23.268;2022-09-17T13:57:33;94042.50;;;19.39;100.00
22647;BME280;11490;42.726;23.268;2022-09-17T14:27:47;94089.44;;;19.09;100.00
22647;BME280;11490;42.726;23.268;2022-09-17T14:30:19;94063.84;;;19.32;100.00
22647;BME280;11490;42.726;23.268;2022-09-17T14:38:01;94019.47;;;19.16;100.00
22647;BME280;11490;42.726;23.268;2022-09-17T14:40:27;94009.63;;;19.20;100.00
22647;BME280;11490;42.726;23.268;2022-09-17T14:42:56;93980.56;;;19.00;100.00
22647;BME280;11490;42.726;23.268;2022-09-17T14:45:30;93994.03;;;19.17;100.00
22647;BME280;11490;42.726;23.268;2022-09-17T14:50:46;94016.28;;;19.14;100.00
22647;BME280;11490;42.726;23.268;2022-09-17T14:53:15;94029.03;;;19.05;100.00
22647;BME280;11490;42.726;23.268;2022-09-17T14:55:43;94006.13;;;18.59;100.00
22647;BME280;11490;42.726;23.268;2022-09-17T14:58:31;94020.44;;;18.68;100.00
22647;BME280;11490;42.726;23.268;2022-09-17T15:00:59;93992.78;;;18.54;100.00
22647;BME280;11490;42.726;23.268;2022-09-17T15:03:25;93976.13;;;18.61;100.00
22647;BME280;11490;42.726;23.268;2022-09-17T15:05:50;93962.00;;;18.72;100.00
22647;BME280;11490;42.726;23.268;2022-09-17T15:08:22;93964.03;;;18.67;100.00
22647;BME280;11490;42.726;23.268;2022-09-17T15:13:19;93979.78;;;18.73;100.00
22647;BME280;11490;42.726;23.268;2022-09-17T15:22:40;93940.34;;;18.38;100.00
22647;BME280;11490;42.726;23.268;2022-09-17T15:25:13;93976.44;;;18.85;100.00
22647;BME280;11490;42.726;23.268;2022-09-17T15:27:50;93930.81;;;18.83;100.00
22647;BME280;11490;42.726;23.268;2022-09-17T15:30:27;93938.78;;;18.54;100.00
22647;BME280;11490;42.726;23.268;2022-09-17T15:33:01;93950.22;;;18.86;100.00
22647;BME280;11490;42.726;23.268;2022-09-17T15:35:40;93913.34;;;18.55;100.00
22647;BME280;11490;42.726;23.268;2022-09-17T15:38:48;93947.69;;;18.80;100.00
22647;BME280;11490;42.726;23.268;2022-09-17T15:41:21;93948.63;;;18.76;100.00
22647;BME280;11490;42.726;23.268;2022-09-17T15:43:46;93954.50;;;18.78;100.00
22647;BME280;11490;42.726;23.268;2022-09-17T15:46:28;93948.94;;;18.92;100.00
22647;BME280;11490;42.726;23.268;2022-09-17T15:48:56;93958.88;;;19.26;100.00
22647;BME280;11490;42.726;23.268;2022-09-17T15:51:32;93958.13;;;19.08;100.00
22647;BME280;11490;42.726;23.268;2022-09-17T15:54:27;93975.53;;;19.36;100.00
22647;BME280;11490;42.726;23.268;2022-09-17T15:56:55;93984.94;;;19.39;100.00
22647;BME280;11490;42.726;23.268;2022-09-17T15:59:29;93971.09;;;19.40;100.00
22647;BME280;11490;42.726;23.268;2022-09-17T16:01:57;93949.16;;;19.50;100.00
22647;BME280;11490;42.726;23.268;2022-09-17T16:04:33;93936.06;;;19.44;100.00
22647;BME280;11490;42.726;23.268;2022-09-17T16:09:42;93924.97;;;19.37;100.00
22647;BME280;11490;42.726;23.268;2022-09-17T16:12:11;93935.59;;;18.87;100.00
22647;BME280;11490;42.726;23.268;2022-09-17T16:14:37;93944.63;;;19.08;100.00
22647;BME280;11490;42.726;23.268;2022-09-17T16:17:20;93927.75;;;19.11;100.00
22647;BME280;11490;42.726;23.268;2022-09-17T16:19:46;93924.47;;;18.97;100.00
22647;BME280;11490;42.726;23.268;2022-09-17T16:22:12;93921.09;;;19.00;100.00